sensor_id;sensor_type;location;lat;lon;timestamp;P1;durP1;ratioP1;P2;durP2;ratioP2
52126;SDS011;38120;53.176;6.614;2023-02-20T00:00:47;11.52;;;4.68;;
52126;SDS011;38120;53.176;6.614;2023-02-20T00:03:18;12.40;;;5.20;;
52126;SDS011;38120;53.176;6.614;2023-02-20T00:05:44;14.25;;;5.97;;
52126;SDS011;38120;53.176;6.614;2023-02-20T00:08:10;10.57;;;5.33;;
52126;SDS011;38120;53.176;6.614;2023-02-20T00:10:38;12.43;;;6.55;;
52126;SDS011;38120;53.176;6.614;2023-02-20T00:13:04;9.10;;;5.88;;
52126;SDS011;38120;53.176;6.614;2023-02-20T00:15:29;13.80;;;6.05;;
52126;SDS011;38120;53.176;6.614;2023-02-20T00:17:55;12.70;;;6.37;;
52126;SDS011;38120;53.176;6.614;2023-02-20T00:20:22;13.27;;;7.17;;
52126;SDS011;38120;53.176;6.614;2023-02-20T00:22:49;11.57;;;6.80;;
52126;SDS011;38120;53.176;6.614;2023-02-20T00:27:42;15.05;;;7.72;;
52126;SDS011;38120;53.176;6.614;2023-02-20T00:30:13;13.45;;;9.35;;
52126;SDS011;38120;53.176;6.614;2023-02-20T00:32:41;15.77;;;9.55;;
52126;SDS011;38120;53.176;6.614;2023-02-20T00:35:08;16.83;;;9.00;;
52126;SDS011;38120;53.176;6.614;2023-02-20T00:37:41;16.65;;;8.88;;
52126;SDS011;38120;53.176;6.614;2023-02-20T00:40:07;17.38;;;9.27;;
52126;SDS011;38120;53.176;6.614;2023-02-20T00:42:33;16.50;;;9.13;;
52126;SDS011;38120;53.176;6.614;2023-02-20T00:44:59;11.43;;;8.10;;
52126;SDS011;38120;53.176;6.614;2023-02-20T00:47:25;13.47;;;7.80;;
52126;SDS011;38120;53.176;6.614;2023-02-20T00:49:50;17.93;;;8.90;;
52126;SDS011;38120;53.176;6.614;2023-02-20T00:52:16;15.93;;;8.73;;
52126;SDS011;38120;53.176;6.614;2023-02-20T00:54:42;14.97;;;8.27;;
52126;SDS011;38120;53.176;6.614;2023-02-20T00:57:07;14.52;;;9.57;;
52126;SDS011;38120;53.176;6.614;2023-02-20T00:59:33;13.57;;;8.23;;
52126;SDS011;38120;53.176;6.614;2023-02-20T01:01:59;15.07;;;8.87;;
52126;SDS011;38120;53.176;6.614;2023-02-20T01:04:25;16.07;;;9.03;;
52126;SDS011;38120;53.176;6.614;2023-02-20T01:06:50;15.75;;;8.20;;
52126;SDS011;38120;53.176;6.614;2023-02-20T01:09:16;16.27;;;8.27;;
52126;SDS011;38120;53.176;6.614;2023-02-20T01:11:42;19.30;;;9.80;;
52126;SDS011;38120;53.176;6.614;2023-02-20T01:14:09;16.42;;;9.82;;
52126;SDS011;38120;53.176;6.614;2023-02-20T01:16:35;13.88;;;8.70;;
52126;SDS011;38120;53.176;6.614;2023-02-20T01:19:01;15.47;;;8.87;;
52126;SDS011;38120;53.176;6.614;2023-02-20T01:21:27;18.20;;;9.82;;
52126;SDS011;38120;53.176;6.614;2023-02-20T01:23:52;16.33;;;10.43;;
52126;SDS011;38120;53.176;6.614;2023-02-20T01:26:18;16.23;;;9.30;;
52126;SDS011;38120;53.176;6.614;2023-02-20T01:28:44;14.83;;;10.27;;
52126;SDS011;38120;53.176;6.614;2023-02-20T01:31:13;14.27;;;9.70;;
52126;SDS011;38120;53.176;6.614;2023-02-20T01:33:40;14.27;;;9.57;;
52126;SDS011;38120;53.176;6.614;2023-02-20T01:36:08;16.50;;;9.68;;
52126;SDS011;38120;53.176;6.614;2023-02-20T01:38:34;16.85;;;11.13;;
52126;SDS011;38120;53.176;6.614;2023-02-20T01:41:00;17.77;;;9.23;;
52126;SDS011;38120;53.176;6.614;2023-02-20T01:43:25;18.03;;;10.03;;
52126;SDS011;38120;53.176;6.614;2023-02-20T01:45:51;14.17;;;10.57;;
52126;SDS011;38120;53.176;6.614;2023-02-20T01:48:18;17.88;;;11.15;;
52126;SDS011;38120;53.176;6.614;2023-02-20T01:50:56;18.60;;;10.82;;
52126;SDS011;38120;53.176;6.614;2023-02-20T01:53:23;16.05;;;10.82;;
52126;SDS011;38120;53.176;6.614;2023-02-20T01:55:56;16.33;;;9.63;;
52126;SDS011;38120;53.176;6.614;2023-02-20T01:58:27;15.70;;;11.20;;
52126;SDS011;38120;53.176;6.614;2023-02-20T02:00:57;17.83;;;10.25;;
52126;SDS011;38120;53.176;6.614;2023-02-20T02:03:25;18.08;;;10.93;;
52126;SDS011;38120;53.176;6.614;2023-02-20T02:05:57;17.02;;;8.52;;
52126;SDS011;38120;53.176;6.614;2023-02-20T02:08:26;14.20;;;9.82;;
52126;SDS011;38120;53.176;6.614;2023-02-20T02:11:04;16.90;;;10.02;;
52126;SDS011;38120;53.176;6.614;2023-02-20T02:13:32;16.45;;;10.32;;
52126;SDS011;38120;53.176;6.614;2023-02-20T02:18:43;19.02;;;10.85;;
52126;SDS011;38120;53.176;6.614;2023-02-20T02:30:17;19.40;;;10.57;;
52126;SDS011;38120;53.176;6.614;2023-02-20T02:33:12;16.50;;;9.82;;
52126;SDS011;38120;53.176;6.614;2023-02-20T02:38:52;21.58;;;10.50;;
52126;SDS011;38120;53.176;6.614;2023-02-20T02:41:43;16.33;;;10.77;;
52126;SDS011;38120;53.176;6.614;2023-02-20T02:44:35;22.13;;;10.63;;
52126;SDS011;38120;53.176;6.614;2023-02-20T02:47:03;17.48;;;10.00;;
52126;SDS011;38120;53.176;6.614;2023-02-20T02:52:19;15.77;;;11.00;;
52126;SDS011;38120;53.176;6.614;2023-02-20T02:55:16;21.55;;;11.02;;
52126;SDS011;38120;53.176;6.614;2023-02-20T02:57:44;21.23;;;9.68;;
52126;SDS011;38120;53.176;6.614;2023-02-20T03:00:11;18.75;;;10.68;;
52126;SDS011;38120;53.176;6.614;2023-02-20T03:05:17;16.73;;;10.55;;
52126;SDS011;38120;53.176;6.614;2023-02-20T03:07:47;19.52;;;10.40;;
52126;SDS011;38120;53.176;6.614;2023-02-20T03:10:18;21.30;;;10.10;;
52126;SDS011;38120;53.176;6.614;2023-02-20T03:12:58;21.27;;;10.50;;
52126;SDS011;38120;53.176;6.614;2023-02-20T03:15:33;16.83;;;10.95;;
52126;SDS011;38120;53.176;6.614;2023-02-20T03:18:14;17.48;;;10.73;;
52126;SDS011;38120;53.176;6.614;2023-02-20T03:21:00;16.27;;;10.05;;
52126;SDS011;38120;53.176;6.614;2023-02-20T03:23:32;17.25;;;11.13;;
52126;SDS011;38120;53.176;6.614;2023-02-20T03:26:04;22.83;;;10.10;;
52126;SDS011;38120;53.176;6.614;2023-02-20T03:28:47;23.92;;;9.93;;
52126;SDS011;38120;53.176;6.614;2023-02-20T03:31:36;16.17;;;8.52;;
52126;SDS011;38120;53.176;6.614;2023-02-20T03:37:08;25.02;;;11.43;;
52126;SDS011;38120;53.176;6.614;2023-02-20T03:40:00;22.45;;;10.73;;
52126;SDS011;38120;53.176;6.614;2023-02-20T03:42:49;21.42;;;11.32;;
52126;SDS011;38120;53.176;6.614;2023-02-20T03:45:36;22.80;;;11.23;;
52126;SDS011;38120;53.176;6.614;2023-02-20T03:48:10;21.42;;;10.88;;
52126;SDS011;38120;53.176;6.614;2023-02-20T03:50:40;25.15;;;10.77;;
52126;SDS011;38120;53.176;6.614;2023-02-20T03:53:25;26.08;;;10.98;;
52126;SDS011;38120;53.176;6.614;2023-02-20T03:55:52;21.02;;;10.77;;
52126;SDS011;38120;53.176;6.614;2023-02-20T03:58:28;19.88;;;11.48;;
52126;SDS011;38120;53.176;6.614;2023-02-20T04:00:59;22.73;;;10.27;;
52126;SDS011;38120;53.176;6.614;2023-02-20T04:03:29;19.40;;;10.27;;
52126;SDS011;38120;53.176;6.614;2023-02-20T04:05:57;20.17;;;11.88;;
52126;SDS011;38120;53.176;6.614;2023-02-20T04:08:28;27.77;;;14.50;;
52126;SDS011;38120;53.176;6.614;2023-02-20T04:11:03;26.58;;;11.75;;
52126;SDS011;38120;53.176;6.614;2023-02-20T04:13:34;20.45;;;11.73;;
52126;SDS011;38120;53.176;6.614;2023-02-20T04:16:03;27.35;;;13.25;;
52126;SDS011;38120;53.176;6.614;2023-02-20T04:18:29;29.70;;;12.65;;
52126;SDS011;38120;53.176;6.614;2023-02-20T04:20:57;18.83;;;10.45;;
52126;SDS011;38120;53.176;6.614;2023-02-20T04:23:25;21.30;;;12.18;;
52126;SDS011;38120;53.176;6.614;2023-02-20T04:25:55;21.45;;;12.50;;
52126;SDS011;38120;53.176;6.614;2023-02-20T04:28:26;18.90;;;12.30;;
52126;SDS011;38120;53.176;6.614;2023-02-20T04:30:52;21.00;;;12.15;;
52126;SDS011;38120;53.176;6.614;2023-02-20T04:33:18;29.85;;;13.10;;
52126;SDS011;38120;53.176;6.614;2023-02-20T04:35:45;23.20;;;12.27;;
52126;SDS011;38120;53.176;6.614;2023-02-20T04:38:11;29.53;;;14.10;;
52126;SDS011;38120;53.176;6.614;2023-02-20T04:40:37;24.38;;;13.00;;
52126;SDS011;38120;53.176;6.614;2023-02-20T04:43:02;25.63;;;12.25;;
52126;SDS011;38120;53.176;6.614;2023-02-20T04:45:28;14.90;;;11.52;;
52126;SDS011;38120;53.176;6.614;2023-02-20T04:47:54;30.15;;;14.88;;
52126;SDS011;38120;53.176;6.614;2023-02-20T04:52:46;24.73;;;12.10;;
52126;SDS011;38120;53.176;6.614;2023-02-20T04:55:11;29.13;;;12.97;;
52126;SDS011;38120;53.176;6.614;2023-02-20T04:57:37;22.33;;;12.80;;
52126;SDS011;38120;53.176;6.614;2023-02-20T05:00:03;22.30;;;12.13;;
52126;SDS011;38120;53.176;6.614;2023-02-20T05:02:32;26.52;;;12.25;;
52126;SDS011;38120;53.176;6.614;2023-02-20T05:04:58;22.55;;;14.77;;
52126;SDS011;38120;53.176;6.614;2023-02-20T05:07:24;33.05;;;13.07;;
52126;SDS011;38120;53.176;6.614;2023-02-20T05:09:50;28.90;;;12.63;;
52126;SDS011;38120;53.176;6.614;2023-02-20T05:12:16;20.57;;;11.20;;
52126;SDS011;38120;53.176;6.614;2023-02-20T05:14:41;25.30;;;12.67;;
52126;SDS011;38120;53.176;6.614;2023-02-20T05:17:07;26.03;;;13.43;;
52126;SDS011;38120;53.176;6.614;2023-02-20T05:19:33;25.05;;;11.80;;
52126;SDS011;38120;53.176;6.614;2023-02-20T05:21:58;17.83;;;11.93;;
52126;SDS011;38120;53.176;6.614;2023-02-20T05:24:43;20.65;;;11.20;;
52126;SDS011;38120;53.176;6.614;2023-02-20T05:27:09;32.67;;;14.82;;
52126;SDS011;38120;53.176;6.614;2023-02-20T05:29:35;23.55;;;11.02;;
52126;SDS011;38120;53.176;6.614;2023-02-20T05:32:01;25.17;;;11.77;;
52126;SDS011;38120;53.176;6.614;2023-02-20T05:34:28;25.27;;;14.52;;
52126;SDS011;38120;53.176;6.614;2023-02-20T05:36:53;25.37;;;12.77;;
52126;SDS011;38120;53.176;6.614;2023-02-20T05:39:21;26.65;;;12.73;;
52126;SDS011;38120;53.176;6.614;2023-02-20T05:41:47;27.80;;;12.63;;
52126;SDS011;38120;53.176;6.614;2023-02-20T05:44:13;24.52;;;13.88;;
52126;SDS011;38120;53.176;6.614;2023-02-20T05:46:39;24.47;;;12.60;;
52126;SDS011;38120;53.176;6.614;2023-02-20T05:49:06;24.83;;;9.82;;
52126;SDS011;38120;53.176;6.614;2023-02-20T05:51:31;32.93;;;12.47;;
52126;SDS011;38120;53.176;6.614;2023-02-20T05:53:57;26.27;;;12.80;;
52126;SDS011;38120;53.176;6.614;2023-02-20T05:56:23;24.85;;;13.43;;
52126;SDS011;38120;53.176;6.614;2023-02-20T05:58:49;22.45;;;12.45;;
52126;SDS011;38120;53.176;6.614;2023-02-20T06:01:22;20.35;;;10.13;;
52126;SDS011;38120;53.176;6.614;2023-02-20T06:03:49;23.05;;;11.43;;
52126;SDS011;38120;53.176;6.614;2023-02-20T06:06:15;21.20;;;12.68;;
52126;SDS011;38120;53.176;6.614;2023-02-20T06:08:42;22.25;;;11.15;;
52126;SDS011;38120;53.176;6.614;2023-02-20T06:11:08;21.33;;;10.85;;
52126;SDS011;38120;53.176;6.614;2023-02-20T06:13:35;24.05;;;10.05;;
52126;SDS011;38120;53.176;6.614;2023-02-20T06:16:01;24.30;;;10.07;;
52126;SDS011;38120;53.176;6.614;2023-02-20T06:18:27;21.63;;;11.40;;
52126;SDS011;38120;53.176;6.614;2023-02-20T06:20:52;20.58;;;10.40;;
52126;SDS011;38120;53.176;6.614;2023-02-20T06:23:18;24.33;;;10.23;;
52126;SDS011;38120;53.176;6.614;2023-02-20T06:25:44;21.05;;;9.80;;
52126;SDS011;38120;53.176;6.614;2023-02-20T06:28:09;18.00;;;10.30;;
52126;SDS011;38120;53.176;6.614;2023-02-20T06:30:35;14.43;;;8.87;;
52126;SDS011;38120;53.176;6.614;2023-02-20T06:33:01;25.40;;;10.37;;
52126;SDS011;38120;53.176;6.614;2023-02-20T06:35:26;16.70;;;8.70;;
52126;SDS011;38120;53.176;6.614;2023-02-20T06:37:52;19.83;;;9.00;;
52126;SDS011;38120;53.176;6.614;2023-02-20T06:40:18;20.20;;;8.37;;
52126;SDS011;38120;53.176;6.614;2023-02-20T06:42:44;21.65;;;10.27;;
52126;SDS011;38120;53.176;6.614;2023-02-20T06:45:09;18.03;;;8.97;;
52126;SDS011;38120;53.176;6.614;2023-02-20T06:47:35;16.03;;;7.23;;
52126;SDS011;38120;53.176;6.614;2023-02-20T06:50:01;15.18;;;7.63;;
52126;SDS011;38120;53.176;6.614;2023-02-20T06:52:28;17.83;;;8.70;;
52126;SDS011;38120;53.176;6.614;2023-02-20T06:54:53;15.00;;;7.63;;
52126;SDS011;38120;53.176;6.614;2023-02-20T06:57:19;16.80;;;9.53;;
52126;SDS011;38120;53.176;6.614;2023-02-20T06:59:45;18.60;;;8.95;;
52126;SDS011;38120;53.176;6.614;2023-02-20T07:02:12;18.23;;;8.98;;
52126;SDS011;38120;53.176;6.614;2023-02-20T07:04:39;15.05;;;8.68;;
52126;SDS011;38120;53.176;6.614;2023-02-20T07:07:05;15.93;;;8.40;;
52126;SDS011;38120;53.176;6.614;2023-02-20T07:09:31;19.17;;;8.40;;
52126;SDS011;38120;53.176;6.614;2023-02-20T07:11:56;20.80;;;8.37;;
52126;SDS011;38120;53.176;6.614;2023-02-20T07:14:22;18.20;;;8.45;;
52126;SDS011;38120;53.176;6.614;2023-02-20T07:16:51;15.90;;;7.05;;
52126;SDS011;38120;53.176;6.614;2023-02-20T07:19:16;14.93;;;7.70;;
52126;SDS011;38120;53.176;6.614;2023-02-20T07:21:50;16.73;;;7.40;;
52126;SDS011;38120;53.176;6.614;2023-02-20T07:24:16;19.43;;;8.07;;
52126;SDS011;38120;53.176;6.614;2023-02-20T07:26:42;15.93;;;7.17;;
52126;SDS011;38120;53.176;6.614;2023-02-20T07:29:08;16.87;;;6.73;;
52126;SDS011;38120;53.176;6.614;2023-02-20T07:31:34;22.60;;;7.03;;
52126;SDS011;38120;53.176;6.614;2023-02-20T07:33:59;13.98;;;7.43;;
52126;SDS011;38120;53.176;6.614;2023-02-20T07:36:25;15.77;;;7.13;;
52126;SDS011;38120;53.176;6.614;2023-02-20T07:38:58;19.52;;;8.10;;
52126;SDS011;38120;53.176;6.614;2023-02-20T07:41:25;20.35;;;6.60;;
52126;SDS011;38120;53.176;6.614;2023-02-20T07:44:02;14.77;;;6.38;;
52126;SDS011;38120;53.176;6.614;2023-02-20T07:46:28;16.42;;;6.50;;
52126;SDS011;38120;53.176;6.614;2023-02-20T07:48:58;13.07;;;6.18;;
52126;SDS011;38120;53.176;6.614;2023-02-20T07:51:25;17.52;;;7.80;;
52126;SDS011;38120;53.176;6.614;2023-02-20T07:53:53;16.70;;;5.90;;
52126;SDS011;38120;53.176;6.614;2023-02-20T07:56:19;13.13;;;6.20;;
52126;SDS011;38120;53.176;6.614;2023-02-20T07:58:46;13.88;;;7.15;;
52126;SDS011;38120;53.176;6.614;2023-02-20T08:01:12;14.10;;;6.45;;
52126;SDS011;38120;53.176;6.614;2023-02-20T08:03:38;14.45;;;6.10;;
52126;SDS011;38120;53.176;6.614;2023-02-20T08:06:04;12.48;;;6.63;;
52126;SDS011;38120;53.176;6.614;2023-02-20T08:08:30;16.85;;;6.57;;
52126;SDS011;38120;53.176;6.614;2023-02-20T08:10:56;14.97;;;6.33;;
52126;SDS011;38120;53.176;6.614;2023-02-20T08:13:22;12.18;;;5.97;;
52126;SDS011;38120;53.176;6.614;2023-02-20T08:15:50;14.05;;;5.97;;
52126;SDS011;38120;53.176;6.614;2023-02-20T08:18:16;14.93;;;6.27;;
52126;SDS011;38120;53.176;6.614;2023-02-20T08:20:42;15.47;;;6.30;;
52126;SDS011;38120;53.176;6.614;2023-02-20T08:23:17;16.33;;;6.80;;
52126;SDS011;38120;53.176;6.614;2023-02-20T08:25:45;12.93;;;5.45;;
52126;SDS011;38120;53.176;6.614;2023-02-20T08:28:11;12.18;;;6.38;;
52126;SDS011;38120;53.176;6.614;2023-02-20T08:30:37;11.15;;;6.22;;
52126;SDS011;38120;53.176;6.614;2023-02-20T08:33:03;11.53;;;5.93;;
52126;SDS011;38120;53.176;6.614;2023-02-20T08:35:33;17.75;;;6.53;;
52126;SDS011;38120;53.176;6.614;2023-02-20T08:38:00;17.02;;;6.63;;
52126;SDS011;38120;53.176;6.614;2023-02-20T08:40:30;9.43;;;4.88;;
52126;SDS011;38120;53.176;6.614;2023-02-20T08:42:55;20.17;;;6.80;;
52126;SDS011;38120;53.176;6.614;2023-02-20T08:45:21;15.25;;;6.30;;
52126;SDS011;38120;53.176;6.614;2023-02-20T08:47:47;11.07;;;5.93;;
52126;SDS011;38120;53.176;6.614;2023-02-20T08:50:14;12.45;;;5.82;;
52126;SDS011;38120;53.176;6.614;2023-02-20T08:52:41;18.67;;;6.38;;
52126;SDS011;38120;53.176;6.614;2023-02-20T08:55:07;10.65;;;5.97;;
52126;SDS011;38120;53.176;6.614;2023-02-20T08:57:33;14.25;;;6.55;;
52126;SDS011;38120;53.176;6.614;2023-02-20T08:59:59;15.10;;;7.60;;
52126;SDS011;38120;53.176;6.614;2023-02-20T09:02:25;13.90;;;5.73;;
52126;SDS011;38120;53.176;6.614;2023-02-20T09:04:53;11.93;;;4.50;;
52126;SDS011;38120;53.176;6.614;2023-02-20T09:07:28;11.18;;;4.80;;
52126;SDS011;38120;53.176;6.614;2023-02-20T09:09:53;8.97;;;4.63;;
52126;SDS011;38120;53.176;6.614;2023-02-20T09:12:19;10.20;;;5.65;;
52126;SDS011;38120;53.176;6.614;2023-02-20T09:14:45;17.33;;;6.00;;
52126;SDS011;38120;53.176;6.614;2023-02-20T09:17:11;10.93;;;6.50;;
52126;SDS011;38120;53.176;6.614;2023-02-20T09:19:38;9.70;;;5.13;;
52126;SDS011;38120;53.176;6.614;2023-02-20T09:22:03;18.40;;;6.33;;
52126;SDS011;38120;53.176;6.614;2023-02-20T09:24:29;12.20;;;6.20;;
52126;SDS011;38120;53.176;6.614;2023-02-20T09:27:01;10.68;;;5.30;;
52126;SDS011;38120;53.176;6.614;2023-02-20T09:29:29;8.93;;;4.78;;
52126;SDS011;38120;53.176;6.614;2023-02-20T09:31:54;11.45;;;5.88;;
52126;SDS011;38120;53.176;6.614;2023-02-20T09:34:20;10.13;;;5.68;;
52126;SDS011;38120;53.176;6.614;2023-02-20T09:36:46;11.50;;;5.17;;
52126;SDS011;38120;53.176;6.614;2023-02-20T09:39:12;9.60;;;5.20;;
52126;SDS011;38120;53.176;6.614;2023-02-20T09:47:20;8.95;;;5.28;;
52126;SDS011;38120;53.176;6.614;2023-02-20T09:50:08;8.48;;;4.25;;
52126;SDS011;38120;53.176;6.614;2023-02-20T09:55:45;10.63;;;4.95;;
52126;SDS011;38120;53.176;6.614;2023-02-20T09:58:18;11.32;;;4.65;;
52126;SDS011;38120;53.176;6.614;2023-02-20T10:00:50;12.50;;;5.30;;
52126;SDS011;38120;53.176;6.614;2023-02-20T10:05:51;16.38;;;6.72;;
52126;SDS011;38120;53.176;6.614;2023-02-20T10:08:20;13.70;;;4.90;;
52126;SDS011;38120;53.176;6.614;2023-02-20T10:13:26;12.15;;;5.97;;
52126;SDS011;38120;53.176;6.614;2023-02-20T10:27:03;17.15;;;6.85;;
52126;SDS011;38120;53.176;6.614;2023-02-20T10:30:02;12.20;;;5.90;;
52126;SDS011;38120;53.176;6.614;2023-02-20T10:32:35;15.27;;;6.35;;
52126;SDS011;38120;53.176;6.614;2023-02-20T10:35:05;12.73;;;6.13;;
52126;SDS011;38120;53.176;6.614;2023-02-20T10:37:39;13.20;;;6.13;;
52126;SDS011;38120;53.176;6.614;2023-02-20T10:40:17;14.07;;;6.57;;
52126;SDS011;38120;53.176;6.614;2023-02-20T10:42:50;15.63;;;5.40;;
52126;SDS011;38120;53.176;6.614;2023-02-20T10:46:11;18.92;;;5.80;;
52126;SDS011;38120;53.176;6.614;2023-02-20T10:48:15;12.57;;;5.22;;
52126;SDS011;38120;53.176;6.614;2023-02-20T10:55:59;17.93;;;5.13;;
52126;SDS011;38120;53.176;6.614;2023-02-20T11:01:20;10.63;;;4.65;;
52126;SDS011;38120;53.176;6.614;2023-02-20T11:06:33;13.40;;;5.00;;
52126;SDS011;38120;53.176;6.614;2023-02-20T11:09:11;10.65;;;4.85;;
52126;SDS011;38120;53.176;6.614;2023-02-20T11:11:41;13.32;;;5.38;;
52126;SDS011;38120;53.176;6.614;2023-02-20T11:16:47;13.15;;;5.53;;
52126;SDS011;38120;53.176;6.614;2023-02-20T11:19:31;7.57;;;4.22;;
52126;SDS011;38120;53.176;6.614;2023-02-20T11:22:06;11.00;;;4.30;;
52126;SDS011;38120;53.176;6.614;2023-02-20T11:24:33;15.63;;;5.68;;
52126;SDS011;38120;53.176;6.614;2023-02-20T11:27:01;13.18;;;5.43;;
52126;SDS011;38120;53.176;6.614;2023-02-20T11:29:32;10.93;;;5.15;;
52126;SDS011;38120;53.176;6.614;2023-02-20T11:38:29;10.18;;;4.05;;
52126;SDS011;38120;53.176;6.614;2023-02-20T11:40:57;10.63;;;5.10;;
52126;SDS011;38120;53.176;6.614;2023-02-20T11:43:40;14.95;;;4.32;;
52126;SDS011;38120;53.176;6.614;2023-02-20T11:46:15;16.38;;;5.63;;
52126;SDS011;38120;53.176;6.614;2023-02-20T11:51:41;10.00;;;4.57;;
52126;SDS011;38120;53.176;6.614;2023-02-20T11:59:27;10.05;;;4.30;;
52126;SDS011;38120;53.176;6.614;2023-02-20T12:04:42;8.27;;;3.60;;
52126;SDS011;38120;53.176;6.614;2023-02-20T12:07:17;18.40;;;5.53;;
52126;SDS011;38120;53.176;6.614;2023-02-20T12:09:46;10.07;;;4.00;;
52126;SDS011;38120;53.176;6.614;2023-02-20T12:12:17;7.40;;;3.53;;
52126;SDS011;38120;53.176;6.614;2023-02-20T12:14:48;12.18;;;4.50;;
52126;SDS011;38120;53.176;6.614;2023-02-20T12:20:38;12.13;;;5.03;;
52126;SDS011;38120;53.176;6.614;2023-02-20T12:22:49;10.98;;;5.07;;
52126;SDS011;38120;53.176;6.614;2023-02-20T12:25:47;10.40;;;4.20;;
52126;SDS011;38120;53.176;6.614;2023-02-20T12:28:16;10.05;;;4.10;;
52126;SDS011;38120;53.176;6.614;2023-02-20T12:36:36;15.23;;;4.30;;
52126;SDS011;38120;53.176;6.614;2023-02-20T12:47:13;10.48;;;4.20;;
52126;SDS011;38120;53.176;6.614;2023-02-20T13:00:53;9.67;;;5.03;;
52126;SDS011;38120;53.176;6.614;2023-02-20T13:03:32;14.13;;;4.28;;
52126;SDS011;38120;53.176;6.614;2023-02-20T13:05:59;10.27;;;4.95;;
52126;SDS011;38120;53.176;6.614;2023-02-20T13:08:30;11.65;;;4.35;;
52126;SDS011;38120;53.176;6.614;2023-02-20T13:11:04;12.50;;;4.90;;
52126;SDS011;38120;53.176;6.614;2023-02-20T13:16:23;15.70;;;4.78;;
52126;SDS011;38120;53.176;6.614;2023-02-20T13:22:14;8.32;;;3.75;;
52126;SDS011;38120;53.176;6.614;2023-02-20T13:24:41;7.97;;;3.88;;
52126;SDS011;38120;53.176;6.614;2023-02-20T13:27:08;8.48;;;3.63;;
52126;SDS011;38120;53.176;6.614;2023-02-20T13:29:55;16.15;;;4.85;;
52126;SDS011;38120;53.176;6.614;2023-02-20T13:33:11;5.65;;;3.30;;
52126;SDS011;38120;53.176;6.614;2023-02-20T13:35:53;13.82;;;3.97;;
52126;SDS011;38120;53.176;6.614;2023-02-20T13:38:22;10.18;;;4.43;;
52126;SDS011;38120;53.176;6.614;2023-02-20T13:46:08;13.02;;;4.63;;
52126;SDS011;38120;53.176;6.614;2023-02-20T13:48:38;13.00;;;4.40;;
52126;SDS011;38120;53.176;6.614;2023-02-20T13:56:22;13.00;;;4.60;;
52126;SDS011;38120;53.176;6.614;2023-02-20T13:58:56;10.85;;;4.95;;
52126;SDS011;38120;53.176;6.614;2023-02-20T14:01:24;20.35;;;5.15;;
52126;SDS011;38120;53.176;6.614;2023-02-20T14:04:00;13.32;;;4.60;;
52126;SDS011;38120;53.176;6.614;2023-02-20T14:06:29;11.50;;;3.75;;
52126;SDS011;38120;53.176;6.614;2023-02-20T14:09:08;11.32;;;5.65;;
52126;SDS011;38120;53.176;6.614;2023-02-20T14:11:45;18.23;;;4.47;;
52126;SDS011;38120;53.176;6.614;2023-02-20T14:14:46;10.43;;;4.70;;
52126;SDS011;38120;53.176;6.614;2023-02-20T14:17:12;10.52;;;4.07;;
52126;SDS011;38120;53.176;6.614;2023-02-20T14:19:47;13.48;;;5.07;;
52126;SDS011;38120;53.176;6.614;2023-02-20T14:24:45;10.80;;;4.20;;
52126;SDS011;38120;53.176;6.614;2023-02-20T14:27:25;10.07;;;4.22;;
52126;SDS011;38120;53.176;6.614;2023-02-20T14:30:03;10.82;;;4.40;;
52126;SDS011;38120;53.176;6.614;2023-02-20T14:32:30;11.45;;;5.00;;
52126;SDS011;38120;53.176;6.614;2023-02-20T14:35:09;12.65;;;4.13;;
52126;SDS011;38120;53.176;6.614;2023-02-20T14:37:56;12.45;;;4.93;;
52126;SDS011;38120;53.176;6.614;2023-02-20T14:40:36;16.90;;;4.82;;
52126;SDS011;38120;53.176;6.614;2023-02-20T14:43:10;13.88;;;4.70;;
52126;SDS011;38120;53.176;6.614;2023-02-20T14:45:42;9.57;;;4.72;;
52126;SDS011;38120;53.176;6.614;2023-02-20T14:48:24;9.80;;;4.10;;
52126;SDS011;38120;53.176;6.614;2023-02-20T14:51:08;13.63;;;5.35;;
52126;SDS011;38120;53.176;6.614;2023-02-20T14:53:41;11.70;;;4.30;;
52126;SDS011;38120;53.176;6.614;2023-02-20T14:56:09;11.38;;;2.83;;
52126;SDS011;38120;53.176;6.614;2023-02-20T14:58:35;10.68;;;4.78;;
52126;SDS011;38120;53.176;6.614;2023-02-20T15:01:19;13.57;;;4.95;;
52126;SDS011;38120;53.176;6.614;2023-02-20T15:04:01;11.02;;;5.78;;
52126;SDS011;38120;53.176;6.614;2023-02-20T15:06:33;12.35;;;4.55;;
52126;SDS011;38120;53.176;6.614;2023-02-20T15:09:02;10.30;;;4.30;;
52126;SDS011;38120;53.176;6.614;2023-02-20T15:11:30;15.40;;;4.93;;
52126;SDS011;38120;53.176;6.614;2023-02-20T15:13:57;11.35;;;4.28;;
52126;SDS011;38120;53.176;6.614;2023-02-20T15:16:31;13.55;;;5.25;;
52126;SDS011;38120;53.176;6.614;2023-02-20T15:18:59;11.38;;;4.43;;
52126;SDS011;38120;53.176;6.614;2023-02-20T15:21:32;10.68;;;3.75;;
52126;SDS011;38120;53.176;6.614;2023-02-20T15:27:14;16.02;;;4.85;;
52126;SDS011;38120;53.176;6.614;2023-02-20T15:30:07;9.15;;;4.43;;
52126;SDS011;38120;53.176;6.614;2023-02-20T15:32:37;9.93;;;4.28;;
52126;SDS011;38120;53.176;6.614;2023-02-20T15:35:11;10.40;;;4.45;;
52126;SDS011;38120;53.176;6.614;2023-02-20T15:37:48;11.10;;;4.32;;
52126;SDS011;38120;53.176;6.614;2023-02-20T15:40:22;10.13;;;4.53;;
52126;SDS011;38120;53.176;6.614;2023-02-20T15:42:49;9.77;;;4.53;;
52126;SDS011;38120;53.176;6.614;2023-02-20T15:45:24;12.55;;;4.00;;
52126;SDS011;38120;53.176;6.614;2023-02-20T15:47:59;10.95;;;4.60;;
52126;SDS011;38120;53.176;6.614;2023-02-20T15:50:25;13.40;;;5.87;;
52126;SDS011;38120;53.176;6.614;2023-02-20T15:53:01;12.55;;;4.90;;
52126;SDS011;38120;53.176;6.614;2023-02-20T15:55:28;12.50;;;5.07;;
52126;SDS011;38120;53.176;6.614;2023-02-20T15:57:57;10.13;;;4.82;;
52126;SDS011;38120;53.176;6.614;2023-02-20T16:00:25;17.65;;;4.75;;
52126;SDS011;38120;53.176;6.614;2023-02-20T16:02:54;10.32;;;4.50;;
52126;SDS011;38120;53.176;6.614;2023-02-20T16:05:20;15.77;;;5.17;;
52126;SDS011;38120;53.176;6.614;2023-02-20T16:07:46;9.75;;;4.20;;
52126;SDS011;38120;53.176;6.614;2023-02-20T16:10:16;10.57;;;4.27;;
52126;SDS011;38120;53.176;6.614;2023-02-20T16:12:44;19.85;;;5.60;;
52126;SDS011;38120;53.176;6.614;2023-02-20T16:15:17;12.95;;;4.07;;
52126;SDS011;38120;53.176;6.614;2023-02-20T16:17:45;8.32;;;4.18;;
52126;SDS011;38120;53.176;6.614;2023-02-20T16:20:16;16.55;;;4.43;;
52126;SDS011;38120;53.176;6.614;2023-02-20T16:22:45;13.00;;;4.32;;
52126;SDS011;38120;53.176;6.614;2023-02-20T16:25:13;10.40;;;4.30;;
52126;SDS011;38120;53.176;6.614;2023-02-20T16:27:41;13.55;;;4.82;;
52126;SDS011;38120;53.176;6.614;2023-02-20T16:30:32;14.65;;;4.30;;
52126;SDS011;38120;53.176;6.614;2023-02-20T16:33:02;9.73;;;4.15;;
52126;SDS011;38120;53.176;6.614;2023-02-20T16:35:37;12.35;;;5.28;;
52126;SDS011;38120;53.176;6.614;2023-02-20T16:38:03;12.13;;;4.35;;
52126;SDS011;38120;53.176;6.614;2023-02-20T16:40:29;8.63;;;4.93;;
52126;SDS011;38120;53.176;6.614;2023-02-20T16:42:54;10.13;;;4.83;;
52126;SDS011;38120;53.176;6.614;2023-02-20T16:45:20;10.33;;;4.23;;
52126;SDS011;38120;53.176;6.614;2023-02-20T16:47:47;12.02;;;4.40;;
52126;SDS011;38120;53.176;6.614;2023-02-20T16:50:17;14.80;;;5.25;;
52126;SDS011;38120;53.176;6.614;2023-02-20T16:52:47;12.27;;;4.28;;
52126;SDS011;38120;53.176;6.614;2023-02-20T16:55:25;10.95;;;4.28;;
52126;SDS011;38120;53.176;6.614;2023-02-20T16:57:53;14.70;;;5.25;;
52126;SDS011;38120;53.176;6.614;2023-02-20T17:00:24;14.23;;;5.32;;
52126;SDS011;38120;53.176;6.614;2023-02-20T17:02:54;14.45;;;5.90;;